sensor_id;sensor_type;location;lat;lon;timestamp;temperature;humidity
48752;DHT22;34544;48.836;9.174;2023-06-14T00:01:32;14.30;99.90
48752;DHT22;34544;48.836;9.174;2023-06-14T00:04:01;14.20;99.90
48752;DHT22;34544;48.836;9.174;2023-06-14T00:06:28;14.20;99.90
48752;DHT22;34544;48.836;9.174;2023-06-14T00:08:54;14.20;99.90
48752;DHT22;34544;48.836;9.174;2023-06-14T00:11:20;14.10;99.90
48752;DHT22;34544;48.836;9.174;2023-06-14T00:13:46;14.10;99.90
48752;DHT22;34544;48.836;9.174;2023-06-14T00:16:12;14.10;99.90
48752;DHT22;34544;48.836;9.174;2023-06-14T00:18:38;14.00;99.90
48752;DHT22;34544;48.836;9.174;2023-06-14T00:21:04;14.00;99.90
48752;DHT22;34544;48.836;9.174;2023-06-14T00:23:30;14.00;99.90
48752;DHT22;34544;48.836;9.174;2023-06-14T00:25:56;14.00;99.90
48752;DHT22;34544;48.836;9.174;2023-06-14T00:28:22;13.90;99.90
48752;DHT22;34544;48.836;9.174;2023-06-14T00:30:48;13.90;99.90
48752;DHT22;34544;48.836;9.174;2023-06-14T00:33:13;13.90;99.90
48752;DHT22;34544;48.836;9.174;2023-06-14T00:35:39;13.80;99.90
48752;DHT22;34544;48.836;9.174;2023-06-14T00:38:05;13.80;99.90
48752;DHT22;34544;48.836;9.174;2023-06-14T00:40:32;13.70;99.90
48752;DHT22;34544;48.836;9.174;2023-06-14T00:42:58;13.70;99.90
48752;DHT22;34544;48.836;9.174;2023-06-14T00:45:23;13.70;99.90
48752;DHT22;34544;48.836;9.174;2023-06-14T00:47:50;13.60;99.90
48752;DHT22;34544;48.836;9.174;2023-06-14T00:50:19;13.60;99.90
48752;DHT22;34544;48.836;9.174;2023-06-14T00:52:45;13.50;99.90
48752;DHT22;34544;48.836;9.174;2023-06-14T00:55:11;13.50;99.90
48752;DHT22;34544;48.836;9.174;2023-06-14T00:57:37;13.50;99.90
48752;DHT22;34544;48.836;9.174;2023-06-14T01:00:04;13.50;99.90
48752;DHT22;34544;48.836;9.174;2023-06-14T01:02:35;13.50;99.90
48752;DHT22;34544;48.836;9.174;2023-06-14T01:05:02;13.40;99.90
48752;DHT22;34544;48.836;9.174;2023-06-14T01:10:54;13.30;99.90
48752;DHT22;34544;48.836;9.174;2023-06-14T01:13:29;13.30;99.90
48752;DHT22;34544;48.836;9.174;2023-06-14T01:15:56;13.20;99.90
48752;DHT22;34544;48.836;9.174;2023-06-14T01:18:22;13.20;99.90
48752;DHT22;34544;48.836;9.174;2023-06-14T01:20:51;13.20;99.90
48752;DHT22;34544;48.836;9.174;2023-06-14T01:23:21;13.10;99.90
48752;DHT22;34544;48.836;9.174;2023-06-14T01:25:48;13.10;99.90
48752;DHT22;34544;48.836;9.174;2023-06-14T01:28:18;13.10;99.90
48752;DHT22;34544;48.836;9.174;2023-06-14T01:30:49;13.10;99.90
48752;DHT22;34544;48.836;9.174;2023-06-14T01:33:21;13.00;99.90
48752;DHT22;34544;48.836;9.174;2023-06-14T01:35:49;13.00;99.90
48752;DHT22;34544;48.836;9.174;2023-06-14T01:38:17;13.00;99.90
48752;DHT22;34544;48.836;9.174;2023-06-14T01:40:45;12.90;99.90
48752;DHT22;34544;48.836;9.174;2023-06-14T01:43:13;12.90;99.90
48752;DHT22;34544;48.836;9.174;2023-06-14T01:45:40;12.90;99.90
48752;DHT22;34544;48.836;9.174;2023-06-14T01:48:06;12.90;99.90
48752;DHT22;34544;48.836;9.174;2023-06-14T01:50:32;12.90;99.90
48752;DHT22;34544;48.836;9.174;2023-06-14T01:52:58;12.90;99.90
48752;DHT22;34544;48.836;9.174;2023-06-14T01:55:23;12.80;99.90
48752;DHT22;34544;48.836;9.174;2023-06-14T01:57:51;12.80;99.90
48752;DHT22;34544;48.836;9.174;2023-06-14T02:00:17;12.80;99.90
48752;DHT22;34544;48.836;9.174;2023-06-14T02:02:44;12.70;99.90
48752;DHT22;34544;48.836;9.174;2023-06-14T02:05:10;12.70;99.90
48752;DHT22;34544;48.836;9.174;2023-06-14T02:07:36;12.70;99.90
48752;DHT22;34544;48.836;9.174;2023-06-14T02:10:03;12.70;99.90
48752;DHT22;34544;48.836;9.174;2023-06-14T02:12:28;12.70;99.90
48752;DHT22;34544;48.836;9.174;2023-06-14T02:14:57;12.60;99.90
48752;DHT22;34544;48.836;9.174;2023-06-14T02:17:23;12.60;99.90
48752;DHT22;34544;48.836;9.174;2023-06-14T02:19:49;12.50;99.90
48752;DHT22;34544;48.836;9.174;2023-06-14T02:22:16;12.50;99.90
48752;DHT22;34544;48.836;9.174;2023-06-14T02:24:42;12.50;99.90
48752;DHT22;34544;48.836;9.174;2023-06-14T02:27:08;12.50;99.90
48752;DHT22;34544;48.836;9.174;2023-06-14T02:29:36;12.50;99.90
48752;DHT22;34544;48.836;9.174;2023-06-14T02:32:04;12.50;99.90
48752;DHT22;34544;48.836;9.174;2023-06-14T02:34:30;12.40;99.90
48752;DHT22;34544;48.836;9.174;2023-06-14T02:36:56;12.40;99.90
48752;DHT22;34544;48.836;9.174;2023-06-14T02:39:22;12.40;99.90
48752;DHT22;34544;48.836;9.174;2023-06-14T02:41:49;12.40;99.90
48752;DHT22;34544;48.836;9.174;2023-06-14T02:44:18;12.30;99.90
48752;DHT22;34544;48.836;9.174;2023-06-14T02:46:44;12.30;99.90
48752;DHT22;34544;48.836;9.174;2023-06-14T02:49:11;12.30;99.90
48752;DHT22;34544;48.836;9.174;2023-06-14T02:51:37;12.30;99.90
48752;DHT22;34544;48.836;9.174;2023-06-14T02:54:03;12.20;99.90
48752;DHT22;34544;48.836;9.174;2023-06-14T02:56:29;12.20;99.90
48752;DHT22;34544;48.836;9.174;2023-06-14T02:58:56;12.20;99.90
48752;DHT22;34544;48.836;9.174;2023-06-14T03:01:25;12.20;99.90
48752;DHT22;34544;48.836;9.174;2023-06-14T03:04:02;12.20;99.90
48752;DHT22;34544;48.836;9.174;2023-06-14T03:06:30;12.10;99.90
48752;DHT22;34544;48.836;9.174;2023-06-14T03:08:58;12.10;99.90
48752;DHT22;34544;48.836;9.174;2023-06-14T03:11:26;12.10;99.90
48752;DHT22;34544;48.836;9.174;2023-06-14T03:13:53;12.00;99.90
48752;DHT22;34544;48.836;9.174;2023-06-14T03:16:19;12.00;99.90
48752;DHT22;34544;48.836;9.174;2023-06-14T03:18:46;12.00;99.90
48752;DHT22;34544;48.836;9.174;2023-06-14T03:21:12;12.00;99.90
48752;DHT22;34544;48.836;9.174;2023-06-14T03:23:43;12.00;99.90
48752;DHT22;34544;48.836;9.174;2023-06-14T03:26:09;12.00;99.90
48752;DHT22;34544;48.836;9.174;2023-06-14T03:28:38;12.00;99.90
48752;DHT22;34544;48.836;9.174;2023-06-14T03:31:04;12.00;99.90
48752;DHT22;34544;48.836;9.174;2023-06-14T03:33:31;12.00;99.90
48752;DHT22;34544;48.836;9.174;2023-06-14T03:35:57;12.00;99.90
48752;DHT22;34544;48.836;9.174;2023-06-14T03:38:23;12.00;99.90
48752;DHT22;34544;48.836;9.174;2023-06-14T03:40:50;12.00;99.90
48752;DHT22;34544;48.836;9.174;2023-06-14T03:43:16;12.00;99.90
48752;DHT22;34544;48.836;9.174;2023-06-14T03:45:42;12.00;99.90
48752;DHT22;34544;48.836;9.174;2023-06-14T03:48:09;12.00;99.90
48752;DHT22;34544;48.836;9.174;2023-06-14T03:50:35;12.00;99.90
48752;DHT22;34544;48.836;9.174;2023-06-14T03:53:04;12.00;99.90
48752;DHT22;34544;48.836;9.174;2023-06-14T03:55:31;12.00;99.90
48752;DHT22;34544;48.836;9.174;2023-06-14T03:57:58;12.10;99.90
48752;DHT22;34544;48.836;9.174;2023-06-14T04:00:24;12.20;99.90
48752;DHT22;34544;48.836;9.174;2023-06-14T04:02:50;12.30;99.90
48752;DHT22;34544;48.836;9.174;2023-06-14T04:05:17;12.40;99.90
48752;DHT22;34544;48.836;9.174;2023-06-14T04:07:47;12.40;99.90
48752;DHT22;34544;48.836;9.174;2023-06-14T04:10:15;12.50;99.90
48752;DHT22;34544;48.836;9.174;2023-06-14T04:12:42;12.60;99.90
48752;DHT22;34544;48.836;9.174;2023-06-14T04:15:08;12.60;99.90
48752;DHT22;34544;48.836;9.174;2023-06-14T04:17:36;12.70;99.90
48752;DHT22;34544;48.836;9.174;2023-06-14T04:20:03;12.70;99.90
48752;DHT22;34544;48.836;9.174;2023-06-14T04:22:31;12.80;99.90
48752;DHT22;34544;48.836;9.174;2023-06-14T04:24:58;12.80;99.90
48752;DHT22;34544;48.836;9.174;2023-06-14T04:27:26;12.90;99.90
48752;DHT22;34544;48.836;9.174;2023-06-14T04:29:53;12.90;99.90
48752;DHT22;34544;48.836;9.174;2023-06-14T04:32:25;13.00;99.90
48752;DHT22;34544;48.836;9.174;2023-06-14T04:34:54;13.10;99.90
48752;DHT22;34544;48.836;9.174;2023-06-14T04:37:23;13.00;99.90
48752;DHT22;34544;48.836;9.174;2023-06-14T04:39:49;13.10;99.90
48752;DHT22;34544;48.836;9.174;2023-06-14T04:42:16;13.20;99.90
48752;DHT22;34544;48.836;9.174;2023-06-14T04:44:43;13.40;99.90
48752;DHT22;34544;48.836;9.174;2023-06-14T04:47:10;13.50;99.90
48752;DHT22;34544;48.836;9.174;2023-06-14T04:49:38;13.60;99.90
48752;DHT22;34544;48.836;9.174;2023-06-14T04:52:06;13.80;99.90
48752;DHT22;34544;48.836;9.174;2023-06-14T04:54:35;13.90;99.90
48752;DHT22;34544;48.836;9.174;2023-06-14T04:57:04;14.00;99.90
48752;DHT22;34544;48.836;9.174;2023-06-14T04:59:31;14.10;99.90
48752;DHT22;34544;48.836;9.174;2023-06-14T05:01:59;14.20;99.90
48752;DHT22;34544;48.836;9.174;2023-06-14T05:04:25;14.30;99.90
48752;DHT22;34544;48.836;9.174;2023-06-14T05:06:53;14.40;99.90
48752;DHT22;34544;48.836;9.174;2023-06-14T05:09:23;14.50;99.90
48752;DHT22;34544;48.836;9.174;2023-06-14T05:11:49;14.60;99.90
48752;DHT22;34544;48.836;9.174;2023-06-14T05:14:15;14.70;99.90
48752;DHT22;34544;48.836;9.174;2023-06-14T05:16:41;14.80;99.90
48752;DHT22;34544;48.836;9.174;2023-06-14T05:21:36;15.00;99.90
48752;DHT22;34544;48.836;9.174;2023-06-14T05:24:03;15.10;99.90
48752;DHT22;34544;48.836;9.174;2023-06-14T05:28:58;15.30;99.90
48752;DHT22;34544;48.836;9.174;2023-06-14T05:33:52;15.50;99.90
48752;DHT22;34544;48.836;9.174;2023-06-14T05:36:21;15.60;99.90
48752;DHT22;34544;48.836;9.174;2023-06-14T05:38:47;15.70;99.90
48752;DHT22;34544;48.836;9.174;2023-06-14T05:43:39;15.90;99.90
48752;DHT22;34544;48.836;9.174;2023-06-14T05:46:05;15.90;99.90
48752;DHT22;34544;48.836;9.174;2023-06-14T05:48:31;16.00;99.90
48752;DHT22;34544;48.836;9.174;2023-06-14T05:50:56;16.10;99.90
48752;DHT22;34544;48.836;9.174;2023-06-14T05:53:22;17.40;99.90
48752;DHT22;34544;48.836;9.174;2023-06-14T05:58:14;16.50;99.90
48752;DHT22;34544;48.836;9.174;2023-06-14T06:00:39;16.70;99.90
48752;DHT22;34544;48.836;9.174;2023-06-14T06:03:05;16.80;99.90
48752;DHT22;34544;48.836;9.174;2023-06-14T06:05:33;16.80;99.90
48752;DHT22;34544;48.836;9.174;2023-06-14T06:07:59;16.90;99.90
48752;DHT22;34544;48.836;9.174;2023-06-14T06:10:26;17.00;99.90
48752;DHT22;34544;48.836;9.174;2023-06-14T06:12:51;17.10;99.90
48752;DHT22;34544;48.836;9.174;2023-06-14T06:15:17;17.20;99.90
48752;DHT22;34544;48.836;9.174;2023-06-14T06:17:44;17.30;99.90
48752;DHT22;34544;48.836;9.174;2023-06-14T06:20:10;17.40;99.90
48752;DHT22;34544;48.836;9.174;2023-06-14T06:22:37;17.80;99.90
48752;DHT22;34544;48.836;9.174;2023-06-14T06:25:03;17.70;99.90
48752;DHT22;34544;48.836;9.174;2023-06-14T06:27:29;17.70;99.90
48752;DHT22;34544;48.836;9.174;2023-06-14T06:29:55;17.80;99.90
48752;DHT22;34544;48.836;9.174;2023-06-14T06:32:21;17.90;99.90
48752;DHT22;34544;48.836;9.174;2023-06-14T06:34:46;18.00;99.90
48752;DHT22;34544;48.836;9.174;2023-06-14T06:37:13;18.10;99.90
48752;DHT22;34544;48.836;9.174;2023-06-14T06:39:39;18.20;99.90
48752;DHT22;34544;48.836;9.174;2023-06-14T06:42:05;18.70;99.90
48752;DHT22;34544;48.836;9.174;2023-06-14T06:44:35;18.40;99.90
48752;DHT22;34544;48.836;9.174;2023-06-14T06:47:01;18.60;99.40
48752;DHT22;34544;48.836;9.174;2023-06-14T06:49:27;18.60;99.50
48752;DHT22;34544;48.836;9.174;2023-06-14T06:52:00;18.60;99.60
48752;DHT22;34544;48.836;9.174;2023-06-14T06:54:27;18.70;99.90
48752;DHT22;34544;48.836;9.174;2023-06-14T06:56:53;18.90;99.90
48752;DHT22;34544;48.836;9.174;2023-06-14T06:59:18;19.00;99.70
48752;DHT22;34544;48.836;9.174;2023-06-14T07:01:44;19.10;98.90
48752;DHT22;34544;48.836;9.174;2023-06-14T07:04:10;19.30;99.40
48752;DHT22;34544;48.836;9.174;2023-06-14T07:06:35;19.50;98.60
48752;DHT22;34544;48.836;9.174;2023-06-14T07:09:01;19.70;98.20
48752;DHT22;34544;48.836;9.174;2023-06-14T07:11:27;19.90;97.70
48752;DHT22;34544;48.836;9.174;2023-06-14T07:13:53;20.10;97.50
48752;DHT22;34544;48.836;9.174;2023-06-14T07:16:18;20.30;96.40
48752;DHT22;34544;48.836;9.174;2023-06-14T07:18:44;20.50;96.00
48752;DHT22;34544;48.836;9.174;2023-06-14T07:21:10;20.60;96.40
48752;DHT22;34544;48.836;9.174;2023-06-14T07:23:35;20.80;96.80
48752;DHT22;34544;48.836;9.174;2023-06-14T07:26:01;21.00;95.80
48752;DHT22;34544;48.836;9.174;2023-06-14T07:28:27;21.20;95.90
48752;DHT22;34544;48.836;9.174;2023-06-14T07:30:52;21.30;95.40
48752;DHT22;34544;48.836;9.174;2023-06-14T07:33:18;21.50;95.60
48752;DHT22;34544;48.836;9.174;2023-06-14T07:35:43;21.80;95.10
48752;DHT22;34544;48.836;9.174;2023-06-14T07:38:09;22.00;94.70
48752;DHT22;34544;48.836;9.174;2023-06-14T07:40:35;22.10;94.40
48752;DHT22;34544;48.836;9.174;2023-06-14T07:43:00;22.30;94.00
48752;DHT22;34544;48.836;9.174;2023-06-14T07:45:27;22.40;93.60
48752;DHT22;34544;48.836;9.174;2023-06-14T07:47:53;22.40;93.90
48752;DHT22;34544;48.836;9.174;2023-06-14T07:50:19;22.60;94.10
48752;DHT22;34544;48.836;9.174;2023-06-14T07:52:45;22.70;93.30
48752;DHT22;34544;48.836;9.174;2023-06-14T07:55:11;22.90;93.20
48752;DHT22;34544;48.836;9.174;2023-06-14T07:57:37;23.00;93.00
48752;DHT22;34544;48.836;9.174;2023-06-14T08:00:04;23.00;93.10
48752;DHT22;34544;48.836;9.174;2023-06-14T08:02:37;23.20;93.40
48752;DHT22;34544;48.836;9.174;2023-06-14T08:05:03;23.40;92.60
48752;DHT22;34544;48.836;9.174;2023-06-14T08:07:29;23.50;92.30
48752;DHT22;34544;48.836;9.174;2023-06-14T08:09:55;23.70;92.10
48752;DHT22;34544;48.836;9.174;2023-06-14T08:12:20;23.80;91.50
48752;DHT22;34544;48.836;9.174;2023-06-14T08:14:46;24.00;91.70
48752;DHT22;34544;48.836;9.174;2023-06-14T08:17:12;24.20;91.10
48752;DHT22;34544;48.836;9.174;2023-06-14T08:19:37;24.50;91.00
48752;DHT22;34544;48.836;9.174;2023-06-14T08:22:03;24.70;90.60
48752;DHT22;34544;48.836;9.174;2023-06-14T08:24:29;24.90;90.40
48752;DHT22;34544;48.836;9.174;2023-06-14T08:26:55;25.00;88.50
48752;DHT22;34544;48.836;9.174;2023-06-14T08:29:22;25.00;89.80
48752;DHT22;34544;48.836;9.174;2023-06-14T08:31:47;25.10;88.50
48752;DHT22;34544;48.836;9.174;2023-06-14T08:34:13;25.20;88.20
48752;DHT22;34544;48.836;9.174;2023-06-14T08:36:39;25.30;87.80
48752;DHT22;34544;48.836;9.174;2023-06-14T08:39:05;25.50;87.50
48752;DHT22;34544;48.836;9.174;2023-06-14T08:41:31;25.60;88.00
48752;DHT22;34544;48.836;9.174;2023-06-14T08:43:57;25.60;87.00
48752;DHT22;34544;48.836;9.174;2023-06-14T08:46:26;25.90;87.90
48752;DHT22;34544;48.836;9.174;2023-06-14T08:48:55;26.10;86.40
48752;DHT22;34544;48.836;9.174;2023-06-14T08:51:25;26.20;85.60
48752;DHT22;34544;48.836;9.174;2023-06-14T08:53:54;26.40;86.00
48752;DHT22;34544;48.836;9.174;2023-06-14T08:56:26;26.40;85.40
48752;DHT22;34544;48.836;9.174;2023-06-14T08:58:53;26.60;86.90
48752;DHT22;34544;48.836;9.174;2023-06-14T09:01:20;26.90;88.30
48752;DHT22;34544;48.836;9.174;2023-06-14T09:03:47;27.00;92.00
48752;DHT22;34544;48.836;9.174;2023-06-14T09:06:14;27.00;87.10
48752;DHT22;34544;48.836;9.174;2023-06-14T09:08:45;26.30;93.10
48752;DHT22;34544;48.836;9.174;2023-06-14T09:11:12;27.20;82.80
48752;DHT22;34544;48.836;9.174;2023-06-14T09:13:41;27.20;83.10
48752;DHT22;34544;48.836;9.174;2023-06-14T09:16:08;27.20;83.70
48752;DHT22;34544;48.836;9.174;2023-06-14T09:18:37;27.40;82.80
48752;DHT22;34544;48.836;9.174;2023-06-14T09:21:06;27.80;90.50
48752;DHT22;34544;48.836;9.174;2023-06-14T09:23:40;27.90;82.30
48752;DHT22;34544;48.836;9.174;2023-06-14T09:26:07;28.10;81.60
48752;DHT22;34544;48.836;9.174;2023-06-14T09:28:34;28.20;80.30
48752;DHT22;34544;48.836;9.174;2023-06-14T09:31:01;28.40;79.80
48752;DHT22;34544;48.836;9.174;2023-06-14T09:33:27;28.50;79.30
48752;DHT22;34544;48.836;9.174;2023-06-14T09:35:54;28.80;87.30
48752;DHT22;34544;48.836;9.174;2023-06-14T09:38:20;28.90;78.50
48752;DHT22;34544;48.836;9.174;2023-06-14T09:40:46;29.10;78.70
48752;DHT22;34544;48.836;9.174;2023-06-14T09:43:12;29.10;78.40
48752;DHT22;34544;48.836;9.174;2023-06-14T09:45:39;29.10;78.30
48752;DHT22;34544;48.836;9.174;2023-06-14T09:48:07;29.20;80.80
48752;DHT22;34544;48.836;9.174;2023-06-14T09:50:34;29.40;79.60
48752;DHT22;34544;48.836;9.174;2023-06-14T09:53:06;29.40;76.40
48752;DHT22;34544;48.836;9.174;2023-06-14T09:55:35;29.50;76.60
48752;DHT22;34544;48.836;9.174;2023-06-14T09:58:04;29.70;73.30
48752;DHT22;34544;48.836;9.174;2023-06-14T10:00:32;29.70;74.40
48752;DHT22;34544;48.836;9.174;2023-06-14T10:03:05;29.80;75.10
48752;DHT22;34544;48.836;9.174;2023-06-14T10:05:35;30.20;75.10
48752;DHT22;34544;48.836;9.174;2023-06-14T10:08:08;30.70;73.30
48752;DHT22;34544;48.836;9.174;2023-06-14T10:10:35;30.80;72.70
48752;DHT22;34544;48.836;9.174;2023-06-14T10:13:01;30.50;72.60
48752;DHT22;34544;48.836;9.174;2023-06-14T10:15:58;30.00;71.60
48752;DHT22;34544;48.836;9.174;2023-06-14T10:18:46;29.30;71.80
48752;DHT22;34544;48.836;9.174;2023-06-14T10:21:32;28.90;70.80
48752;DHT22;34544;48.836;9.174;2023-06-14T10:24:03;28.90;73.70
48752;DHT22;34544;48.836;9.174;2023-06-14T10:26:30;29.60;70.70
48752;DHT22;34544;48.836;9.174;2023-06-14T10:29:06;30.10;71.00
48752;DHT22;34544;48.836;9.174;2023-06-14T10:31:50;30.50;68.70
48752;DHT22;34544;48.836;9.174;2023-06-14T10:34:28;31.10;68.70
48752;DHT22;34544;48.836;9.174;2023-06-14T10:37:11;31.50;67.80
48752;DHT22;34544;48.836;9.174;2023-06-14T10:39:43;31.70;68.70
48752;DHT22;34544;48.836;9.174;2023-06-14T10:42:13;31.20;67.00
48752;DHT22;34544;48.836;9.174;2023-06-14T10:44:40;30.40;66.20
48752;DHT22;34544;48.836;9.174;2023-06-14T10:47:09;29.80;68.10
48752;DHT22;34544;48.836;9.174;2023-06-14T10:49:46;29.70;67.60
48752;DHT22;34544;48.836;9.174;2023-06-14T10:52:15;30.10;67.70
48752;DHT22;34544;48.836;9.174;2023-06-14T10:57:45;31.10;64.10
48752;DHT22;34544;48.836;9.174;2023-06-14T11:00:17;31.30;63.90
48752;DHT22;34544;48.836;9.174;2023-06-14T11:05:26;32.30;65.70
48752;DHT22;34544;48.836;9.174;2023-06-14T11:07:58;32.70;63.20
48752;DHT22;34544;48.836;9.174;2023-06-14T11:10:36;32.80;62.90
48752;DHT22;34544;48.836;9.174;2023-06-14T11:13:06;32.80;62.90
48752;DHT22;34544;48.836;9.174;2023-06-14T11:15:36;32.90;62.20
48752;DHT22;34544;48.836;9.174;2023-06-14T11:18:05;32.70;61.70
48752;DHT22;34544;48.836;9.174;2023-06-14T11:20:33;32.60;61.00
48752;DHT22;34544;48.836;9.174;2023-06-14T11:23:00;32.80;62.70
48752;DHT22;34544;48.836;9.174;2023-06-14T11:25:27;33.00;61.10
48752;DHT22;34544;48.836;9.174;2023-06-14T11:27:56;33.10;59.80
48752;DHT22;34544;48.836;9.174;2023-06-14T11:30:23;33.20;59.80
48752;DHT22;34544;48.836;9.174;2023-06-14T11:32:50;33.70;60.20
48752;DHT22;34544;48.836;9.174;2023-06-14T11:35:18;34.20;60.00
48752;DHT22;34544;48.836;9.174;2023-06-14T11:37:44;34.70;66.00
48752;DHT22;34544;48.836;9.174;2023-06-14T11:40:11;34.70;62.70
48752;DHT22;34544;48.836;9.174;2023-06-14T11:42:39;34.50;60.90
48752;DHT22;34544;48.836;9.174;2023-06-14T11:45:10;33.60;61.80
48752;DHT22;34544;48.836;9.174;2023-06-14T11:47:38;32.70;61.40
48752;DHT22;34544;48.836;9.174;2023-06-14T11:50:05;32.30;60.80
48752;DHT22;34544;48.836;9.174;2023-06-14T11:52:32;31.60;65.00
48752;DHT22;34544;48.836;9.174;2023-06-14T11:54:58;31.60;64.90
48752;DHT22;34544;48.836;9.174;2023-06-14T11:57:25;32.00;64.30
48752;DHT22;34544;48.836;9.174;2023-06-14T11:59:51;32.60;63.20
48752;DHT22;34544;48.836;9.174;2023-06-14T12:02:19;33.10;64.10
48752;DHT22;34544;48.836;9.174;2023-06-14T12:04:49;33.20;63.00
48752;DHT22;34544;48.836;9.174;2023-06-14T12:07:15;32.80;63.20
48752;DHT22;34544;48.836;9.174;2023-06-14T12:10:04;32.40;64.50
48752;DHT22;34544;48.836;9.174;2023-06-14T12:12:36;32.10;64.60
48752;DHT22;34544;48.836;9.174;2023-06-14T12:15:06;32.10;65.00
48752;DHT22;34544;48.836;9.174;2023-06-14T12:17:35;32.50;64.30
48752;DHT22;34544;48.836;9.174;2023-06-14T12:20:11;33.00;62.70
48752;DHT22;34544;48.836;9.174;2023-06-14T12:22:37;33.70;63.90
48752;DHT22;34544;48.836;9.174;2023-06-14T12:25:04;34.10;61.60
48752;DHT22;34544;48.836;9.174;2023-06-14T12:27:31;33.90;62.70
48752;DHT22;34544;48.836;9.174;2023-06-14T12:30:01;33.40;62.20
48752;DHT22;34544;48.836;9.174;2023-06-14T12:32:27;33.50;61.90
48752;DHT22;34544;48.836;9.174;2023-06-14T12:34:53;33.20;61.50
48752;DHT22;34544;48.836;9.174;2023-06-14T12:37:19;33.20;63.90
48752;DHT22;34544;48.836;9.174;2023-06-14T12:39:45;33.20;61.20
48752;DHT22;34544;48.836;9.174;2023-06-14T12:42:10;33.40;61.20
48752;DHT22;34544;48.836;9.174;2023-06-14T12:44:36;33.40;60.90
48752;DHT22;34544;48.836;9.174;2023-06-14T12:47:07;33.50;61.30
48752;DHT22;34544;48.836;9.174;2023-06-14T12:49:33;33.60;61.40
48752;DHT22;34544;48.836;9.174;2023-06-14T12:51:59;33.20;61.20
48752;DHT22;34544;48.836;9.174;2023-06-14T12:54:25;32.50;61.80
48752;DHT22;34544;48.836;9.174;2023-06-14T12:56:51;31.80;61.00
48752;DHT22;34544;48.836;9.174;2023-06-14T12:59:18;31.50;74.20
48752;DHT22;34544;48.836;9.174;2023-06-14T13:01:44;31.70;72.00
48752;DHT22;34544;48.836;9.174;2023-06-14T13:04:10;32.20;72.60
48752;DHT22;34544;48.836;9.174;2023-06-14T13:06:36;32.80;71.70
48752;DHT22;34544;48.836;9.174;2023-06-14T13:09:02;33.10;73.30
48752;DHT22;34544;48.836;9.174;2023-06-14T13:11:29;33.80;64.10
48752;DHT22;34544;48.836;9.174;2023-06-14T13:13:55;34.30;58.40
48752;DHT22;34544;48.836;9.174;2023-06-14T13:18:48;35.30;55.70
48752;DHT22;34544;48.836;9.174;2023-06-14T13:21:14;35.30;56.50
48752;DHT22;34544;48.836;9.174;2023-06-14T13:23:39;35.60;56.20
48752;DHT22;34544;48.836;9.174;2023-06-14T13:26:05;35.80;54.80
48752;DHT22;34544;48.836;9.174;2023-06-14T13:28:31;35.90;54.70
48752;DHT22;34544;48.836;9.174;2023-06-14T13:30:58;35.70;54.10
48752;DHT22;34544;48.836;9.174;2023-06-14T13:33:23;35.90;54.50
48752;DHT22;34544;48.836;9.174;2023-06-14T13:35:50;36.10;55.70
48752;DHT22;34544;48.836;9.174;2023-06-14T13:38:18;36.30;53.80
48752;DHT22;34544;48.836;9.174;2023-06-14T13:40:44;36.20;55.70
48752;DHT22;34544;48.836;9.174;2023-06-14T13:43:10;36.20;54.40
48752;DHT22;34544;48.836;9.174;2023-06-14T13:45:36;36.40;55.00
48752;DHT22;34544;48.836;9.174;2023-06-14T13:48:02;36.20;55.00
48752;DHT22;34544;48.836;9.174;2023-06-14T13:50:28;35.40;53.90
48752;DHT22;34544;48.836;9.174;2023-06-14T13:52:54;34.50;54.00
48752;DHT22;34544;48.836;9.174;2023-06-14T13:55:19;33.60;54.60
48752;DHT22;34544;48.836;9.174;2023-06-14T13:57:45;32.90;55.70
48752;DHT22;34544;48.836;9.174;2023-06-14T14:00:11;32.20;56.30
48752;DHT22;34544;48.836;9.174;2023-06-14T14:02:41;31.40;57.80
48752;DHT22;34544;48.836;9.174;2023-06-14T14:05:08;30.60;59.10
48752;DHT22;34544;48.836;9.174;2023-06-14T14:07:34;30.20;59.60
48752;DHT22;34544;48.836;9.174;2023-06-14T14:10:02;30.20;61.10
48752;DHT22;34544;48.836;9.174;2023-06-14T14:12:28;30.80;60.50
48752;DHT22;34544;48.836;9.174;2023-06-14T14:14:54;31.80;59.50
48752;DHT22;34544;48.836;9.174;2023-06-14T14:17:20;32.60;57.30
48752;DHT22;34544;48.836;9.174;2023-06-14T14:19:46;33.20;58.70
48752;DHT22;34544;48.836;9.174;2023-06-14T14:22:12;33.30;57.40
48752;DHT22;34544;48.836;9.174;2023-06-14T14:24:38;33.10;56.10
48752;DHT22;34544;48.836;9.174;2023-06-14T14:27:04;32.80;57.10
48752;DHT22;34544;48.836;9.174;2023-06-14T14:29:31;32.80;57.50
48752;DHT22;34544;48.836;9.174;2023-06-14T14:31:56;33.00;57.30
48752;DHT22;34544;48.836;9.174;2023-06-14T14:34:23;33.50;58.20
48752;DHT22;34544;48.836;9.174;2023-06-14T14:36:49;34.10;55.70
48752;DHT22;34544;48.836;9.174;2023-06-14T14:39:15;34.30;56.50
48752;DHT22;34544;48.836;9.174;2023-06-14T14:41:40;34.50;55.60
48752;DHT22;34544;48.836;9.174;2023-06-14T14:44:06;34.50;54.90
48752;DHT22;34544;48.836;9.174;2023-06-14T14:46:32;34.20;54.60
48752;DHT22;34544;48.836;9.174;2023-06-14T14:49:01;33.50;55.30
48752;DHT22;34544;48.836;9.174;2023-06-14T14:51:26;32.80;57.00
48752;DHT22;34544;48.836;9.174;2023-06-14T14:53:52;32.10;58.10
48752;DHT22;34544;48.836;9.174;2023-06-14T14:56:18;31.40;58.40
48752;DHT22;34544;48.836;9.174;2023-06-14T14:58:43;31.20;58.50
48752;DHT22;34544;48.836;9.174;2023-06-14T15:01:09;30.90;59.80
48752;DHT22;34544;48.836;9.174;2023-06-14T15:03:36;30.50;59.90
48752;DHT22;34544;48.836;9.174;2023-06-14T15:06:01;30.10;60.70
48752;DHT22;34544;48.836;9.174;2023-06-14T15:08:27;29.60;59.80
48752;DHT22;34544;48.836;9.174;2023-06-14T15:10:52;29.60;60.60
48752;DHT22;34544;48.836;9.174;2023-06-14T15:13:18;30.00;59.40
48752;DHT22;34544;48.836;9.174;2023-06-14T15:15:44;30.40;59.20
48752;DHT22;34544;48.836;9.174;2023-06-14T15:18:09;30.90;59.00
48752;DHT22;34544;48.836;9.174;2023-06-14T15:20:35;31.70;59.40
48752;DHT22;34544;48.836;9.174;2023-06-14T15:23:01;32.30;58.70
48752;DHT22;34544;48.836;9.174;2023-06-14T15:25:29;31.90;57.90
48752;DHT22;34544;48.836;9.174;2023-06-14T15:27:56;31.50;59.00
48752;DHT22;34544;48.836;9.174;2023-06-14T15:30:21;30.90;59.10
48752;DHT22;34544;48.836;9.174;2023-06-14T15:32:47;30.40;59.70
48752;DHT22;34544;48.836;9.174;2023-06-14T15:35:14;29.90;61.20
48752;DHT22;34544;48.836;9.174;2023-06-14T15:37:40;29.70;60.70
48752;DHT22;34544;48.836;9.174;2023-06-14T15:40:06;29.80;59.60
48752;DHT22;34544;48.836;9.174;2023-06-14T15:42:32;29.80;59.70
48752;DHT22;34544;48.836;9.174;2023-06-14T15:44:58;29.60;61.10
48752;DHT22;34544;48.836;9.174;2023-06-14T15:47:24;29.30;60.70
48752;DHT22;34544;48.836;9.174;2023-06-14T15:49:50;29.30;60.60
48752;DHT22;34544;48.836;9.174;2023-06-14T15:52:15;29.70;59.60
48752;DHT22;34544;48.836;9.174;2023-06-14T15:54:41;29.80;59.10